Douglas, United Kingdom
Current Conditions -  °F | °C
As of 1:20 PM on Tuesday 21 Oct 2014 (Local Time) from EGPK Reporting Station
Rain Showers Rain Showers  
Wind Chill: 37°   Ceiling: Unl
Heat Index: 46°   Visibility: 6mi
Dew Point: 37°   Wind: 31mph
Humidity: 71%   Direction: 310°NW
Pressure: 29.59"   Gusts: 51mph
Location:  55.55°N, 3.85°W
Report Text: EGPK 211220Z 31027G44KT 9999 -SHRA FEW020CB SCT030 08/03 Q1002
Loading
Personal Weather Stations






























Interactive Weather Map
Tropical Storm Tracking
New forecast layout! Learn more

10-Day Weather Forecast

Advertisements
Track Severe Weather on mobile